Time;durP1;ratioP1;P1;durP2;ratioP2;P2;SDS_P1;SDS_P2;PMS_P1;PMS_P2;Temp;Humidity;BMP_temperature;BMP_pressure;BME280_temperature;BME280_humidity;BME280_pressure;Samples;Min_cycle;Max_cycle;Signal;HPM_P1;HPM_P2
2022/02/19 00:01:39;;;;;;;20.85;19.85;;;8.60;72.80;;;;;;4955252;28;20058;-81
2022/02/19 00:04:05;;;;;;;20.17;19.27;;;8.60;72.70;;;;;;4942061;28;20042;-82
2022/02/19 00:06:34;;;;;;;20.63;19.70;;;8.50;72.70;;;;;;4956433;28;20398;-82
2022/02/19 00:09:00;;;;;;;21.05;20.05;;;8.50;72.70;;;;;;4953338;29;20039;-81
2022/02/19 00:11:27;;;;;;;21.50;20.40;;;8.50;72.80;;;;;;4948358;28;20059;-82
2022/02/19 00:13:54;;;;;;;20.70;19.75;;;8.50;72.70;;;;;;4943934;29;20050;-82
2022/02/19 00:16:20;;;;;;;19.98;19.08;;;8.40;72.70;;;;;;4942247;28;20043;-81
2022/02/19 00:18:47;;;;;;;20.52;19.63;;;8.50;72.80;;;;;;4948695;28;20046;-81
2022/02/19 00:21:13;;;;;;;20.50;19.40;;;8.50;72.80;;;;;;4949729;28;20043;-81
2022/02/19 00:23:40;;;;;;;20.58;19.67;;;8.40;72.70;;;;;;4944148;29;20043;-82
2022/02/19 00:26:06;;;;;;;19.88;18.88;;;8.40;72.70;;;;;;4964031;28;20513;-82
2022/02/19 00:28:33;;;;;;;20.92;19.92;;;8.40;72.70;;;;;;4941865;29;20043;-82
2022/02/19 00:30:59;;;;;;;19.92;19.02;;;8.40;72.70;;;;;;4955288;28;20035;-81
2022/02/19 00:33:25;;;;;;;20.05;19.15;;;8.40;72.70;;;;;;4954824;28;20046;-82
2022/02/19 00:35:51;;;;;;;20.38;19.48;;;8.40;72.70;;;;;;4942492;29;20503;-81
2022/02/19 00:38:18;;;;;;;20.33;19.42;;;8.40;72.80;;;;;;4949105;28;20382;-82
2022/02/19 00:40:44;;;;;;;20.58;19.67;;;8.40;72.80;;;;;;4951577;29;20031;-82
2022/02/19 00:43:10;;;;;;;20.10;19.13;;;8.40;72.80;;;;;;4937128;28;20402;-81
2022/02/19 00:45:37;;;;;;;19.90;19.00;;;8.30;72.70;;;;;;4952119;28;20035;-81
2022/02/19 00:48:03;;;;;;;20.05;19.15;;;8.30;72.80;;;;;;4955141;28;20043;-81
2022/02/19 00:50:29;;;;;;;20.20;19.30;;;8.30;72.80;;;;;;4954239;29;20042;-82
2022/02/19 00:52:55;;;;;;;20.60;19.70;;;8.30;72.90;;;;;;4954881;28;20509;-80
2022/02/19 00:55:22;;;;;;;20.77;19.80;;;8.30;72.90;;;;;;4958811;28;20046;-80
2022/02/19 00:57:48;;;;;;;19.88;18.98;;;8.20;72.80;;;;;;4952758;29;20030;-80
2022/02/19 01:00:14;;;;;;;19.40;18.50;;;8.30;72.90;;;;;;4950560;28;20043;-80
2022/02/19 01:02:41;;;;;;;19.63;18.73;;;8.20;72.90;;;;;;4952286;28;20040;-81
2022/02/19 01:05:07;;;;;;;19.98;19.08;;;8.20;72.90;;;;;;4947688;28;20036;-81
2022/02/19 01:07:33;;;;;;;19.85;18.95;;;8.20;72.90;;;;;;4963295;28;20039;-81
2022/02/19 01:10:00;;;;;;;20.20;19.30;;;8.20;72.90;;;;;;4949110;28;20040;-81
2022/02/19 01:12:26;;;;;;;20.52;19.52;;;8.20;72.90;;;;;;4954363;28;20028;-83
2022/02/19 01:14:52;;;;;;;20.15;19.25;;;8.20;73.00;;;;;;4952207;29;20035;-80
2022/02/19 01:17:18;;;;;;;19.40;18.50;;;8.10;72.90;;;;;;4950844;28;20038;-80
2022/02/19 01:19:44;;;;;;;20.30;19.40;;;8.10;72.90;;;;;;4955598;28;20079;-80
2022/02/19 01:22:10;;;;;;;20.33;19.42;;;8.10;73.00;;;;;;4964054;28;20048;-82
2022/02/19 01:24:36;;;;;;;21.05;20.05;;;8.00;72.90;;;;;;4952627;29;20023;-82
2022/02/19 01:27:03;;;;;;;20.08;19.17;;;8.00;72.90;;;;;;4942002;28;20024;-82
2022/02/19 01:29:29;;;;;;;21.40;19.80;;;8.00;73.00;;;;;;4955138;28;20038;-82
2022/02/19 01:31:55;;;;;;;20.33;19.42;;;8.00;73.80;;;;;;4953198;28;20035;-82
2022/02/19 01:34:22;;;;;;;19.38;18.48;;;7.90;73.00;;;;;;4951933;28;20034;-82
2022/02/19 01:36:49;;;;;;;21.02;20.02;;;7.90;73.00;;;;;;4956439;28;20415;-82
2022/02/19 01:39:15;;;;;;;21.65;20.50;;;7.90;73.10;;;;;;4951140;28;20137;-83
2022/02/19 01:41:41;;;;;;;21.05;20.05;;;7.90;73.10;;;;;;4949117;28;20054;-82
2022/02/19 01:44:08;;;;;;;21.15;20.15;;;7.80;73.10;;;;;;4951587;29;20035;-82
2022/02/19 01:46:34;;;;;;;20.73;19.73;;;7.80;73.10;;;;;;4943649;28;20062;-82
2022/02/19 01:49:01;;;;;;;20.00;19.10;;;7.80;73.20;;;;;;4952512;28;20043;-82
2022/02/19 01:51:31;;;;;;;21.98;20.40;;;7.80;73.20;;;;;;4931106;29;20027;-82
2022/02/19 01:54:08;;;;;;;20.73;19.75;;;7.80;73.20;;;;;;4940156;28;20120;-82
2022/02/19 01:56:34;;;;;;;20.30;19.40;;;7.80;73.20;;;;;;4953149;28;20066;-81
2022/02/19 01:59:00;;;;;;;21.17;20.17;;;7.70;73.20;;;;;;4949955;29;20027;-82
2022/02/19 02:01:27;;;;;;;20.88;19.88;;;7.70;73.20;;;;;;4960477;28;20042;-82
2022/02/19 02:03:53;;;;;;;20.30;19.40;;;7.70;73.20;;;;;;4952358;28;20502;-82
2022/02/19 02:06:20;;;;;;;21.08;20.08;;;7.70;73.20;;;;;;4940624;28;20024;-82
2022/02/19 02:08:46;;;;;;;19.90;19.00;;;7.70;73.20;;;;;;4925693;29;20036;-82
2022/02/19 02:11:12;;;;;;;21.13;20.13;;;7.70;73.30;;;;;;4945478;28;20487;-82
2022/02/19 02:13:38;;;;;;;20.63;19.67;;;7.70;73.30;;;;;;4964074;28;20039;-82
2022/02/19 02:16:04;;;;;;;21.00;20.00;;;7.60;73.20;;;;;;4951856;28;20038;-82
2022/02/19 02:18:31;;;;;;;20.15;19.25;;;7.60;73.20;;;;;;4941141;28;20039;-82
2022/02/19 02:20:57;;;;;;;20.67;19.75;;;7.60;73.20;;;;;;4950991;28;20027;-81
2022/02/19 02:23:24;;;;;;;21.65;20.65;;;7.60;73.20;;;;;;4953251;28;20050;-81
2022/02/19 02:25:54;;;;;;;20.05;19.15;;;7.60;73.20;;;;;;4953743;28;20044;-82
2022/02/19 02:28:20;;;;;;;19.90;19.00;;;7.60;73.20;;;;;;4938991;28;20047;-82
2022/02/19 02:30:47;;;;;;;20.90;19.90;;;7.50;73.20;;;;;;4947154;28;20483;-82
2022/02/19 02:33:18;;;;;;;20.20;19.30;;;7.50;73.20;;;;;;4952173;28;20462;-82
2022/02/19 02:35:44;;;;;;;19.75;18.85;;;7.50;73.20;;;;;;4942630;28;20044;-81
2022/02/19 02:38:10;;;;;;;19.75;18.85;;;7.50;73.20;;;;;;4947029;28;20032;-82
2022/02/19 02:40:36;;;;;;;20.05;19.15;;;7.50;73.30;;;;;;4960427;28;20028;-82
2022/02/19 02:43:03;;;;;;;20.52;19.48;;;7.50;73.30;;;;;;4950488;29;20047;-82
2022/02/19 02:45:29;;;;;;;20.52;19.33;;;7.50;73.30;;;;;;4958777;28;20101;-82
2022/02/19 02:47:55;;;;;;;17.52;16.73;;;7.50;73.30;;;;;;4951091;28;20521;-82
2022/02/19 02:50:21;;;;;;;19.20;18.30;;;7.40;73.20;;;;;;4951960;28;20040;-82
2022/02/19 02:52:47;;;;;;;20.13;19.03;;;7.40;73.20;;;;;;4964116;28;20030;-81
2022/02/19 02:55:13;;;;;;;19.23;18.33;;;7.40;73.20;;;;;;4953166;28;20039;-82
2022/02/19 02:57:39;;;;;;;19.50;18.60;;;7.40;73.20;;;;;;4954924;28;20046;-82
2022/02/19 03:00:07;;;;;;;19.17;18.27;;;7.40;73.20;;;;;;4952620;28;20043;-82
2022/02/19 03:02:34;;;;;;;18.98;18.08;;;7.40;73.20;;;;;;4952000;28;20456;-82
2022/02/19 03:05:04;;;;;;;19.45;18.55;;;7.30;73.30;;;;;;4931937;29;20051;-82
2022/02/19 03:07:30;;;;;;;18.27;17.47;;;7.30;73.20;;;;;;4952342;29;20023;-82
2022/02/19 03:09:57;;;;;;;18.40;17.50;;;7.30;74.00;;;;;;4952722;28;20294;-82
2022/02/19 03:12:24;;;;;;;18.98;18.08;;;7.30;73.30;;;;;;4955234;28;20070;-82
2022/02/19 03:14:50;;;;;;;19.45;18.48;;;7.30;73.30;;;;;;4952227;28;20031;-82
2022/02/19 03:17:16;;;;;;;18.85;17.95;;;7.30;73.30;;;;;;4951576;28;20062;-82
2022/02/19 03:19:42;;;;;;;20.33;19.10;;;7.30;73.30;;;;;;4959656;28;20031;-82
2022/02/19 03:22:08;;;;;;;19.38;18.48;;;7.20;73.30;;;;;;4951958;29;20059;-82
2022/02/19 03:24:34;;;;;;;19.33;18.42;;;7.20;73.30;;;;;;4952072;28;20038;-82
2022/02/19 03:27:02;;;;;;;17.83;17.02;;;7.20;73.30;;;;;;4953205;29;20072;-82
2022/02/19 03:29:29;;;;;;;18.03;17.23;;;7.20;73.30;;;;;;4950699;29;20062;-82
2022/02/19 03:31:55;;;;;;;19.55;18.65;;;7.20;73.20;;;;;;4951242;28;20059;-82
2022/02/19 03:34:22;;;;;;;19.40;18.50;;;7.20;73.20;;;;;;4941801;29;20046;-82
2022/02/19 03:36:48;;;;;;;19.47;18.40;;;7.10;73.20;;;;;;4956143;28;20165;-82
2022/02/19 03:39:14;;;;;;;19.97;18.93;;;7.10;73.20;;;;;;4955190;29;20496;-82
2022/02/19 03:41:40;;;;;;;19.58;18.67;;;7.10;73.30;;;;;;4961616;28;20405;-82
2022/02/19 03:44:06;;;;;;;20.00;19.00;;;7.10;73.20;;;;;;4957176;28;20042;-82
2022/02/19 03:46:33;;;;;;;19.90;18.90;;;7.00;73.20;;;;;;4951742;28;20046;-82
2022/02/19 03:48:59;;;;;;;19.77;18.88;;;7.00;73.30;;;;;;4938572;28;20410;-82
2022/02/19 03:51:25;;;;;;;19.87;18.97;;;7.00;73.30;;;;;;4939147;28;20055;-82
2022/02/19 03:53:51;;;;;;;19.83;18.92;;;7.00;73.30;;;;;;4958388;28;20429;-82
2022/02/19 03:56:17;;;;;;;19.70;18.80;;;7.00;73.30;;;;;;4958388;28;20058;-82
2022/02/19 03:58:43;;;;;;;19.58;18.67;;;7.00;73.30;;;;;;4958074;28;20055;-82
2022/02/19 04:01:09;;;;;;;19.60;18.70;;;6.90;73.20;;;;;;4952905;28;20035;-82
2022/02/19 04:03:36;;;;;;;19.57;18.67;;;6.90;73.20;;;;;;4949274;28;20073;-82
2022/02/19 04:06:02;;;;;;;19.13;18.23;;;6.90;73.20;;;;;;4953741;28;20035;-82
2022/02/19 04:08:28;;;;;;;17.67;16.87;;;6.90;73.30;;;;;;4952136;28;20041;-82
2022/02/19 04:10:54;;;;;;;19.53;18.63;;;6.90;73.30;;;;;;4953578;28;20408;-82
2022/02/19 04:13:23;;;;;;;19.73;18.83;;;6.90;73.30;;;;;;4964612;28;20046;-82
2022/02/19 04:15:49;;;;;;;18.97;18.07;;;6.90;73.30;;;;;;4954011;28;20051;-82
2022/02/19 04:18:15;;;;;;;17.90;17.10;;;6.80;73.20;;;;;;4954975;28;20131;-81
2022/02/19 04:20:41;;;;;;;18.10;17.30;;;6.80;73.30;;;;;;4943758;28;20035;-82
2022/02/19 04:23:08;;;;;;;19.73;18.77;;;6.80;73.20;;;;;;4942858;28;20035;-82
2022/02/19 04:25:34;;;;;;;18.90;18.00;;;6.80;73.20;;;;;;4952005;29;20038;-81
2022/02/19 04:28:07;;;;;;;19.30;18.40;;;6.80;73.20;;;;;;4954933;28;20411;-82
2022/02/19 04:30:34;;;;;;;19.10;18.20;;;6.80;73.30;;;;;;4953020;28;20044;-82
2022/02/19 04:33:00;;;;;;;19.47;18.37;;;6.80;73.30;;;;;;4944444;28;20042;-82
2022/02/19 04:35:26;;;;;;;19.10;18.20;;;6.80;73.30;;;;;;4954361;28;20479;-82
2022/02/19 04:37:53;;;;;;;19.17;18.27;;;6.80;73.30;;;;;;4938162;28;20054;-82
2022/02/19 04:40:19;;;;;;;19.33;18.43;;;6.80;73.30;;;;;;4952687;28;20028;-84
2022/02/19 04:42:45;;;;;;;19.33;18.43;;;6.80;73.30;;;;;;4961382;28;20346;-88
2022/02/19 04:45:11;;;;;;;19.60;18.70;;;6.80;73.20;;;;;;4951593;28;20506;-82
2022/02/19 04:47:37;;;;;;;19.20;18.30;;;6.80;73.20;;;;;;4960721;28;20055;-84
2022/02/19 04:50:04;;;;;;;18.47;17.33;;;6.80;73.30;;;;;;4935789;29;20487;-82
2022/02/19 04:52:31;;;;;;;18.93;18.03;;;6.70;73.20;;;;;;4950381;28;20062;-79
2022/02/19 04:54:57;;;;;;;19.00;18.10;;;6.70;73.30;;;;;;4948668;28;20031;-82
2022/02/19 04:57:23;;;;;;;18.43;17.53;;;6.70;73.20;;;;;;4951742;29;20053;-80
2022/02/19 04:59:50;;;;;;;19.27;18.37;;;6.70;73.30;;;;;;4951451;28;20050;-82
2022/02/19 05:02:16;;;;;;;19.20;18.30;;;6.70;73.30;;;;;;4937595;28;20050;-89
2022/02/19 05:04:42;;;;;;;19.83;18.77;;;6.70;73.30;;;;;;4945985;28;20046;-85
2022/02/19 05:07:08;;;;;;;18.30;17.50;;;6.70;73.30;;;;;;4965938;28;20387;-84
2022/02/19 05:09:34;;;;;;;18.43;17.60;;;6.70;73.30;;;;;;4952188;28;20035;-84
2022/02/19 05:12:00;;;;;;;18.20;17.40;;;6.70;73.30;;;;;;4952217;28;20031;-85
2022/02/19 05:14:26;;;;;;;18.07;17.27;;;6.70;73.40;;;;;;4949366;29;20039;-86
2022/02/19 05:16:52;;;;;;;17.80;17.00;;;6.60;73.30;;;;;;4947464;28;20039;-85
2022/02/19 05:19:18;;;;;;;18.20;17.40;;;6.60;73.30;;;;;;4948690;28;20047;-83
2022/02/19 05:21:45;;;;;;;18.33;17.53;;;6.60;73.40;;;;;;4952769;28;20034;-82
2022/02/19 05:24:12;;;;;;;17.90;17.10;;;6.60;73.40;;;;;;4950533;29;20038;-82
2022/02/19 05:26:39;;;;;;;18.63;17.73;;;6.60;73.50;;;;;;4947118;28;20391;-83
2022/02/19 05:29:05;;;;;;;18.50;17.70;;;6.60;73.40;;;;;;4947988;28;20035;-82
2022/02/19 05:31:31;;;;;;;17.50;16.70;;;6.60;73.50;;;;;;4934054;28;20052;-81
2022/02/19 05:33:57;;;;;;;17.83;17.03;;;6.60;73.50;;;;;;4955970;28;20529;-82
2022/02/19 05:36:23;;;;;;;17.92;17.13;;;6.60;73.50;;;;;;4929906;29;20050;-85
2022/02/19 05:38:49;;;;;;;18.53;17.67;;;6.60;73.50;;;;;;4948667;28;20046;-82
2022/02/19 05:41:15;;;;;;;17.17;16.37;;;6.60;73.50;;;;;;4956999;28;20039;-84
2022/02/19 05:43:41;;;;;;;18.77;17.87;;;6.60;73.50;;;;;;4950361;28;20043;-82
2022/02/19 05:46:07;;;;;;;19.30;18.23;;;6.60;73.50;;;;;;4949732;28;20035;-80
2022/02/19 05:48:33;;;;;;;18.43;17.53;;;6.60;73.50;;;;;;4950605;29;20058;-80
2022/02/19 05:51:00;;;;;;;18.83;17.93;;;6.60;73.60;;;;;;4950295;29;20043;-83
2022/02/19 05:53:26;;;;;;;18.03;17.23;;;6.60;73.60;;;;;;4949200;28;20038;-86
2022/02/19 05:55:53;;;;;;;19.10;18.20;;;6.60;73.60;;;;;;4951047;28;20038;-84
2022/02/19 05:58:19;;;;;;;17.73;16.93;;;6.50;73.60;;;;;;4961513;28;20047;-83
2022/02/19 06:00:45;;;;;;;18.87;18.00;;;6.50;73.60;;;;;;4949649;28;20087;-83
2022/02/19 06:03:12;;;;;;;18.47;17.67;;;6.50;73.60;;;;;;4952186;29;20047;-83
2022/02/19 06:05:38;;;;;;;17.80;17.00;;;6.50;73.60;;;;;;4950726;28;20034;-82
2022/02/19 06:08:04;;;;;;;17.67;16.88;;;6.50;73.60;;;;;;4954272;28;20613;-81
2022/02/19 06:10:30;;;;;;;17.00;16.20;;;6.50;73.70;;;;;;4958889;28;20038;-82
2022/02/19 06:12:57;;;;;;;17.77;16.97;;;6.50;73.70;;;;;;4950891;29;20490;-82
2022/02/19 06:15:23;;;;;;;17.93;17.13;;;6.50;73.80;;;;;;4946382;28;20035;-82
2022/02/19 06:17:49;;;;;;;18.50;17.30;;;6.50;73.80;;;;;;4946112;28;20035;-84
2022/02/19 06:20:15;;;;;;;17.50;16.70;;;6.40;73.70;;;;;;4949026;28;20035;-81
2022/02/19 06:22:41;;;;;;;17.73;16.93;;;6.40;73.80;;;;;;4948297;28;20510;-80
2022/02/19 06:25:08;;;;;;;18.67;17.80;;;6.40;73.90;;;;;;4945643;28;20042;-85
2022/02/19 06:27:43;;;;;;;18.87;17.97;;;6.40;73.80;;;;;;4949383;28;20035;-84
2022/02/19 06:30:10;;;;;;;17.77;16.97;;;6.40;73.80;;;;;;4953507;28;20055;-84
2022/02/19 06:32:37;;;;;;;17.87;17.07;;;6.40;73.90;;;;;;4958892;28;20055;-85
2022/02/19 06:35:03;;;;;;;19.23;18.13;;;6.40;73.90;;;;;;4953833;28;20522;-84
2022/02/19 06:37:30;;;;;;;17.47;16.67;;;6.40;73.90;;;;;;4954037;28;20418;-88
2022/02/19 06:39:56;;;;;;;18.13;17.33;;;6.40;73.90;;;;;;4955634;29;20704;-81
2022/02/19 06:42:22;;;;;;;18.33;17.17;;;6.40;73.90;;;;;;4956847;28;20527;-89
2022/02/19 06:44:48;;;;;;;17.97;17.17;;;6.40;73.90;;;;;;4946992;28;20050;-88
2022/02/19 06:47:14;;;;;;;17.63;16.83;;;6.30;73.90;;;;;;4936764;28;20051;-87
2022/02/19 06:49:40;;;;;;;18.60;17.70;;;6.30;73.90;;;;;;4952922;28;20046;-84
2022/02/19 06:52:07;;;;;;;16.87;16.07;;;6.30;73.90;;;;;;4954914;28;20035;-83
2022/02/19 06:54:33;;;;;;;17.77;16.97;;;6.30;74.00;;;;;;4955658;28;20039;-82
2022/02/19 06:57:00;;;;;;;18.70;17.80;;;6.30;74.00;;;;;;4952604;29;20035;-80
2022/02/19 06:59:26;;;;;;;17.40;16.60;;;6.30;74.10;;;;;;4956586;28;20054;-88
2022/02/19 07:01:52;;;;;;;18.80;17.90;;;6.30;74.10;;;;;;4952976;28;20035;-82
2022/02/19 07:04:18;;;;;;;16.17;15.47;;;6.30;74.10;;;;;;4976113;28;20046;-85
2022/02/19 07:06:44;;;;;;;17.13;16.33;;;6.30;74.20;;;;;;4920874;29;20035;-82
2022/02/19 07:09:10;;;;;;;16.97;16.17;;;6.50;74.20;;;;;;4953441;28;20516;-85
2022/02/19 07:11:37;;;;;;;17.90;17.10;;;6.60;73.90;;;;;;4939811;28;20039;-83
2022/02/19 07:14:03;;;;;;;17.70;16.90;;;6.60;73.70;;;;;;4934785;28;20047;-82
2022/02/19 07:16:29;;;;;;;19.00;18.00;;;6.60;73.80;;;;;;4948344;28;20031;-90
2022/02/19 07:18:56;;;;;;;17.87;17.07;;;6.60;73.80;;;;;;4952646;28;20367;-84
2022/02/19 07:21:22;;;;;;;17.90;17.10;;;6.60;73.90;;;;;;4953007;29;20035;-85
2022/02/19 07:23:48;;;;;;;17.93;17.03;;;6.50;73.90;;;;;;4953862;28;20064;-82
2022/02/19 07:26:14;;;;;;;18.33;17.53;;;6.50;73.90;;;;;;4953393;28;20027;-82
2022/02/19 07:28:40;;;;;;;17.47;16.67;;;6.50;74.00;;;;;;4954217;29;20031;-84
2022/02/19 07:31:08;;;;;;;18.20;17.40;;;6.50;74.00;;;;;;4952533;28;20047;-84
2022/02/19 07:33:34;;;;;;;17.93;17.13;;;6.50;74.10;;;;;;4949764;28;20043;-83
2022/02/19 07:36:00;;;;;;;17.47;16.67;;;6.50;74.10;;;;;;4932154;29;20434;-85
2022/02/19 07:38:26;;;;;;;18.40;17.50;;;6.50;74.10;;;;;;4951093;28;20034;-81
2022/02/19 07:40:52;;;;;;;17.50;16.70;;;6.50;74.10;;;;;;4951335;28;20042;-83
2022/02/19 07:43:18;;;;;;;17.77;16.97;;;6.50;74.10;;;;;;4953546;29;20035;-86
2022/02/19 07:45:44;;;;;;;17.70;16.90;;;6.50;74.10;;;;;;4952107;28;20046;-82
2022/02/19 07:48:13;;;;;;;18.23;17.43;;;6.50;74.10;;;;;;4952207;28;20475;-84
2022/02/19 07:58:52;;;;;;;18.23;17.43;;;6.60;73.90;;;;;;4948269;28;20413;-84
2022/02/19 08:01:19;;;;;;;19.00;18.10;;;6.90;73.80;;;;;;4947688;28;20039;-78
2022/02/19 08:03:45;;;;;;;18.17;17.37;;;7.30;73.00;;;;;;4947850;28;20035;-78
2022/02/19 08:06:11;;;;;;;18.35;17.55;;;7.80;71.80;;;;;;4944955;28;20032;-78
2022/02/19 08:08:37;;;;;;;16.98;16.17;;;8.20;70.70;;;;;;4949387;29;20035;-79
2022/02/19 08:11:04;;;;;;;19.08;17.60;;;8.70;69.80;;;;;;4946087;28;20040;-78
2022/02/19 08:13:30;;;;;;;19.73;18.83;;;9.10;69.00;;;;;;4950445;28;20043;-82
2022/02/19 08:15:56;;;;;;;20.25;19.35;;;9.40;68.40;;;;;;4943187;28;20039;-80
2022/02/19 08:18:22;;;;;;;1999.90;999.90;;;9.70;68.10;;;;;;4949772;28;20047;-79
2022/02/19 08:20:50;;;;;;;1999.90;999.90;;;9.90;67.70;;;;;;4945056;28;20054;-82
2022/02/19 08:23:16;;;;;;;1999.90;999.90;;;10.10;67.40;;;;;;4952361;28;20027;-81
2022/02/19 08:25:43;;;;;;;1999.90;999.90;;;10.30;67.10;;;;;;4953162;29;20043;-87
2022/02/19 08:28:09;;;;;;;1999.90;999.90;;;10.50;66.90;;;;;;4964229;28;20391;-85
2022/02/19 08:30:38;;;;;;;1999.90;999.90;;;10.70;66.80;;;;;;4938032;28;20040;-83
2022/02/19 08:33:05;;;;;;;1999.90;999.90;;;10.90;66.50;;;;;;4943032;29;21363;-85
2022/02/19 08:35:31;;;;;;;1999.90;999.90;;;11.00;66.50;;;;;;4957280;28;20029;-84
2022/02/19 08:37:57;;;;;;;1999.90;999.90;;;11.20;66.30;;;;;;4949526;28;20686;-84
2022/02/19 08:40:23;;;;;;;1999.90;999.90;;;11.30;66.20;;;;;;4947707;29;20035;-78
2022/02/19 08:42:49;;;;;;;1999.90;999.90;;;11.40;66.20;;;;;;4938406;29;20046;-79
2022/02/19 08:45:16;;;;;;;1999.90;999.90;;;11.40;66.20;;;;;;4959374;28;20050;-79
2022/02/19 08:47:43;;;;;;;1999.90;999.90;;;11.60;66.20;;;;;;4950100;28;20047;-81
2022/02/19 08:50:12;;;;;;;1999.90;999.90;;;11.90;66.00;;;;;;4947829;28;20036;-83
2022/02/19 08:52:39;;;;;;;1999.90;999.90;;;12.20;65.80;;;;;;4945992;28;20506;-85
2022/02/19 08:55:07;;;;;;;1999.90;999.90;;;12.50;65.50;;;;;;4946861;29;20054;-86
2022/02/19 08:57:33;;;;;;;1999.90;999.90;;;12.70;65.10;;;;;;4935628;28;20027;-84
2022/02/19 08:59:59;;;;;;;1999.90;999.90;;;12.90;65.10;;;;;;4932361;29;20051;-87
2022/02/19 09:02:25;;;;;;;1999.90;999.90;;;13.10;65.00;;;;;;4948614;28;20035;-81
2022/02/19 09:04:51;;;;;;;1999.90;999.90;;;13.30;64.90;;;;;;4947745;29;20062;-86
2022/02/19 09:07:17;;;;;;;1999.90;999.90;;;13.50;64.90;;;;;;4952507;28;20409;-84
2022/02/19 09:09:44;;;;;;;1999.90;999.90;;;13.60;65.00;;;;;;4952394;28;20039;-81
2022/02/19 09:12:10;;;;;;;1999.90;999.90;;;13.60;65.00;;;;;;4946762;28;20027;-80
2022/02/19 09:14:36;;;;;;;1999.90;999.90;;;13.80;65.20;;;;;;4943153;29;20554;-80
2022/02/19 09:17:03;;;;;;;1999.90;999.90;;;13.90;65.20;;;;;;4945165;28;20043;-86
2022/02/19 09:19:29;;;;;;;1999.90;999.90;;;14.00;65.10;;;;;;4937971;28;20035;-82
2022/02/19 09:21:55;;;;;;;1999.90;999.90;;;14.20;65.00;;;;;;4954393;28;20027;-89
2022/02/19 09:24:30;;;;;;;1999.90;999.90;;;14.40;64.90;;;;;;5071566;27;20930;-87
2022/02/19 09:26:57;;;;;;;1999.90;999.90;;;14.50;64.80;;;;;;5046790;28;20048;-91
2022/02/19 09:29:24;;;;;;;1999.90;999.90;;;14.50;64.80;;;;;;5047164;28;20460;-83
2022/02/19 09:31:50;;;;;;;1999.90;999.90;;;14.60;64.80;;;;;;5022553;27;20060;-87
2022/02/19 09:34:16;;;;;;;1999.90;999.90;;;14.50;64.90;;;;;;5009106;28;20037;-89
2022/02/19 09:36:42;;;;;;;1999.90;999.90;;;14.40;65.20;;;;;;5007048;28;20053;-91
2022/02/19 09:39:08;;;;;;;1999.90;999.90;;;14.40;65.60;;;;;;5006809;28;20466;-91
2022/02/19 09:41:35;;;;;;;1999.90;999.90;;;14.40;65.90;;;;;;5007601;28;20390;-92
2022/02/19 09:44:02;;;;;;;1999.90;999.90;;;14.50;66.00;;;;;;4989631;28;20077;-90
2022/02/19 09:46:28;;;;;;;1999.90;999.90;;;14.60;65.80;;;;;;5004458;28;20033;-91
2022/02/19 09:49:04;;;;;;;1999.90;999.90;;;14.70;65.60;;;;;;4993793;28;20025;-87
2022/02/19 09:51:31;;;;;;;1999.90;999.90;;;14.80;65.60;;;;;;5005393;28;20517;-88
2022/02/19 09:53:57;;;;;;;1999.90;999.90;;;14.90;65.50;;;;;;5007921;28;20037;-80
2022/02/19 09:56:27;;;;;;;1999.90;999.90;;;14.90;65.30;;;;;;5005750;28;20044;-79
2022/02/19 09:58:58;;;;;;;1999.90;999.90;;;15.10;65.20;;;;;;5001059;28;20033;-77
2022/02/19 10:01:25;;;;;;;1999.90;999.90;;;15.20;64.80;;;;;;5002942;28;20277;-89
2022/02/19 10:04:01;;;;;;;1999.90;999.90;;;15.10;64.50;;;;;;4973805;28;20050;-79
2022/02/19 10:06:29;;;;;;;1999.90;999.90;;;15.10;64.80;;;;;;5002625;28;20041;-83
2022/02/19 10:09:18;;;;;;;1999.90;999.90;;;15.20;64.70;;;;;;5009345;28;20026;-83
2022/02/19 10:11:45;;;;;;;1999.90;999.90;;;15.30;64.40;;;;;;5006110;28;20050;-82
2022/02/19 10:14:29;;;;;;;1999.90;999.90;;;15.30;64.20;;;;;;5008484;28;20128;-81
2022/02/19 10:17:18;;;;;;;1999.90;999.90;;;15.20;64.30;;;;;;5007955;28;20030;-87
2022/02/19 10:20:00;;;;;;;1999.90;999.90;;;15.20;64.60;;;;;;5010060;28;20037;-83
2022/02/19 10:22:30;;;;;;;1999.90;999.90;;;15.20;64.60;;;;;;5040772;28;20037;-82
2022/02/19 10:24:57;;;;;;;1999.90;999.90;;;15.00;64.70;;;;;;4999430;28;20042;-82
2022/02/19 10:27:49;;;;;;;1999.90;999.90;;;14.90;64.90;;;;;;5009551;28;20505;-81
2022/02/19 10:30:20;;;;;;;1999.90;999.90;;;14.80;65.10;;;;;;5002454;28;20046;-83
2022/02/19 10:32:53;;;;;;;1999.90;999.90;;;14.70;65.30;;;;;;5025398;28;20384;-78
2022/02/19 10:35:20;;;;;;;1999.90;999.90;;;14.60;65.50;;;;;;5008968;28;20030;-78
2022/02/19 10:37:50;;;;;;;1999.90;999.90;;;14.50;65.50;;;;;;5013263;28;20037;-76
2022/02/19 10:40:25;;;;;;;1999.90;999.90;;;14.50;65.60;;;;;;5009715;28;20455;-81
2022/02/19 10:42:54;;;;;;;1999.90;999.90;;;14.60;65.50;;;;;;5012302;28;20046;-77
2022/02/19 10:45:20;;;;;;;1999.90;999.90;;;14.60;65.40;;;;;;5010869;28;20038;-77
2022/02/19 10:47:46;;;;;;;1999.90;999.90;;;14.70;65.20;;;;;;5010070;28;20379;-83
2022/02/19 10:50:16;;;;;;;1999.90;999.90;;;14.70;64.90;;;;;;5010097;28;20513;-89
2022/02/19 10:52:43;;;;;;;1999.90;999.90;;;14.80;64.70;;;;;;5008222;28;20390;-90
2022/02/19 10:55:14;;;;;;;1999.90;999.90;;;14.80;64.60;;;;;;5009997;28;20038;-92
2022/02/19 10:57:44;;;;;;;1999.90;999.90;;;14.90;64.40;;;;;;5012742;28;20049;-83
2022/02/19 11:00:17;;;;;;;1999.90;999.90;;;14.90;64.30;;;;;;5010606;28;20030;-89
2022/02/19 11:02:44;;;;;;;1999.90;999.90;;;15.00;64.10;;;;;;5006086;28;20033;-90
2022/02/19 11:05:18;;;;;;;1999.90;999.90;;;15.10;64.00;;;;;;5039903;28;20045;-89
2022/02/19 11:07:46;;;;;;;1999.90;999.90;;;15.20;63.80;;;;;;4991581;28;20041;-92
2022/02/19 11:10:13;;;;;;;1999.90;999.90;;;15.30;63.50;;;;;;5008920;28;20022;-90
2022/02/19 11:12:39;;;;;;;1999.90;999.90;;;15.30;63.30;;;;;;5007818;28;20026;-88
2022/02/19 11:15:06;;;;;;;1999.90;999.90;;;15.30;63.30;;;;;;5040914;28;20697;-90
2022/02/19 11:17:36;;;;;;;1999.90;999.90;;;15.40;63.20;;;;;;5008266;28;20018;-88
2022/02/19 11:20:12;;;;;;;1999.90;999.90;;;15.40;63.20;;;;;;5008571;28;20030;-91
2022/02/19 11:22:39;;;;;;;1999.90;999.90;;;15.40;63.00;;;;;;4991679;28;20069;-90
2022/02/19 11:25:08;;;;;;;1999.90;999.90;;;15.40;63.00;;;;;;4976823;28;20041;-89
2022/02/19 11:27:46;;;;;;;1999.90;999.90;;;15.30;63.00;;;;;;5011357;28;20057;-90
2022/02/19 11:30:12;;;;;;;1999.90;999.90;;;15.20;63.30;;;;;;5007491;28;20777;-92
2022/02/19 11:32:40;;;;;;;1999.90;999.90;;;15.10;63.40;;;;;;5010600;28;22209;-89
2022/02/19 11:35:06;;;;;;;1999.90;999.90;;;15.20;63.30;;;;;;4994127;28;20441;-87
2022/02/19 11:37:37;;;;;;;1999.90;999.90;;;15.20;63.10;;;;;;4993840;28;20046;-88
2022/02/19 11:40:16;;;;;;;1999.90;999.90;;;15.20;63.00;;;;;;5010470;28;20029;-93
2022/02/19 11:42:50;;;;;;;1999.90;999.90;;;15.10;62.90;;;;;;5010533;28;20510;-79
2022/02/19 11:45:20;;;;;;;1999.90;999.90;;;14.90;63.00;;;;;;5009502;28;20045;-87
2022/02/19 11:47:46;;;;;;;1999.90;999.90;;;14.80;63.30;;;;;;5007555;28;20041;-84
2022/02/19 11:50:15;;;;;;;1999.90;999.90;;;14.70;63.40;;;;;;5011746;28;20034;-81
2022/02/19 11:52:41;;;;;;;1999.90;999.90;;;14.70;63.30;;;;;;5011261;28;20040;-81
2022/02/19 11:55:28;;;;;;;1999.90;999.90;;;14.80;63.20;;;;;;5011298;28;20700;-78
2022/02/19 11:58:02;;;;;;;1999.90;999.90;;;14.90;63.00;;;;;;5010351;28;20041;-78
2022/02/19 12:00:47;;;;;;;1999.90;999.90;;;15.10;62.70;;;;;;5006110;28;20380;-88
2022/02/19 12:03:24;;;;;;;1999.90;999.90;;;15.20;62.40;;;;;;5008301;28;20042;-86
2022/02/19 12:06:16;;;;;;;1999.90;999.90;;;15.30;62.20;;;;;;5010333;28;20041;-84
2022/02/19 12:08:48;;;;;;;1999.90;999.90;;;15.20;62.10;;;;;;5008635;28;20048;-88
2022/02/19 12:11:18;;;;;;;1999.90;999.90;;;15.10;62.10;;;;;;5008396;28;20037;-86
2022/02/19 12:13:52;;;;;;;1999.90;999.90;;;15.10;62.30;;;;;;5040470;28;20038;-90
2022/02/19 12:16:31;;;;;;;1999.90;999.90;;;15.00;62.30;;;;;;4992468;28;20041;-87
2022/02/19 12:18:58;;;;;;;1999.90;999.90;;;15.00;62.50;;;;;;5010308;28;20034;-83
2022/02/19 12:21:34;;;;;;;1999.90;999.90;;;15.00;62.30;;;;;;5009315;28;20045;-83
2022/02/19 12:24:14;;;;;;;1999.90;999.90;;;15.00;62.30;;;;;;5018047;28;20042;-93
2022/02/19 12:26:56;;;;;;;1999.90;999.90;;;14.90;62.30;;;;;;5012621;28;20073;-92
2022/02/19 12:29:24;;;;;;;1999.90;999.90;;;14.80;62.30;;;;;;5011817;28;20036;-93
2022/02/19 12:32:17;;;;;;;1999.90;999.90;;;14.80;62.40;;;;;;5023800;28;20030;-94
2022/02/19 12:34:50;;;;;;;1999.90;999.90;;;14.90;62.20;;;;;;5007198;28;20038;-91